createdAt,value
2022-08-23T00:02:27.032Z,3.42
2022-08-23T00:05:03.632Z,3.15
2022-08-23T00:07:39.007Z,3.47
2022-08-23T00:10:10.795Z,3.15
2022-08-23T00:12:38.861Z,3.43
2022-08-23T00:15:07.348Z,3.53
2022-08-23T00:17:35.597Z,3.38
2022-08-23T00:20:06.915Z,2.50
2022-08-23T00:22:34.104Z,2.05
2022-08-23T00:25:00.657Z,2.90
2022-08-23T00:27:27.691Z,2.10
2022-08-23T00:29:55.717Z,2.38
2022-08-23T00:32:25.830Z,2.10
2022-08-23T00:34:52.662Z,2.90
2022-08-23T00:37:19.727Z,3.63
2022-08-23T00:39:46.449Z,3.40
2022-08-23T00:42:56.748Z,4.18
2022-08-23T00:45:49.792Z,3.70
2022-08-23T00:48:16.521Z,3.40
2022-08-23T00:50:51.351Z,3.67
2022-08-23T00:53:21.798Z,3.50
2022-08-23T00:55:51.730Z,2.78
2022-08-23T00:58:20.472Z,2.67
2022-08-23T01:00:49.947Z,2.35
2022-08-23T01:03:16.842Z,2.42
2022-08-23T01:06:14.193Z,2.20
2022-08-23T01:08:45.530Z,2.42
2022-08-23T01:11:17.486Z,2.65
2022-08-23T01:13:53.308Z,2.78
2022-08-23T01:16:26.120Z,2.30
2022-08-23T01:18:54.982Z,2.63
2022-08-23T01:21:31.243Z,2.38
2022-08-23T01:24:01.318Z,3.35
2022-08-23T01:26:28.430Z,3.40
2022-08-23T01:28:55.446Z,2.90
2022-08-23T01:31:23.745Z,3.20
2022-08-23T01:33:55.401Z,4.05
2022-08-23T01:36:22.494Z,4.05
2022-08-23T01:38:51.708Z,2.95
2022-08-23T01:41:19.341Z,3.08
2022-08-23T01:43:46.305Z,3.75
2022-08-23T01:46:18.026Z,3.45
2022-08-23T01:48:46.435Z,4.60
2022-08-23T01:51:16.733Z,3.80
2022-08-23T01:53:44.665Z,4.50
2022-08-23T01:56:11.441Z,3.00
2022-08-23T01:58:39.315Z,3.92
2022-08-23T02:01:06.648Z,3.22
2022-08-23T02:03:34.454Z,3.80
2022-08-23T02:06:01.157Z,3.47
2022-08-23T02:08:46.640Z,3.78
2022-08-23T02:11:16.452Z,3.50
2022-08-23T02:13:46.382Z,3.53
2022-08-23T02:16:22.107Z,4.40
2022-08-23T02:18:48.776Z,3.90
2022-08-23T02:21:16.545Z,4.18
2022-08-23T02:23:43.578Z,3.95
2022-08-23T02:26:10.570Z,3.20
2022-08-23T02:28:37.703Z,3.60
2022-08-23T02:31:04.413Z,3.35
2022-08-23T02:38:49.921Z,3.08
2022-08-23T02:41:17.656Z,3.05
2022-08-23T02:43:45.227Z,2.85
2022-08-23T02:46:12.672Z,3.40
2022-08-23T02:48:39.827Z,3.25
2022-08-23T02:51:08.235Z,3.50
2022-08-23T02:53:34.966Z,3.15
2022-08-23T02:56:05.481Z,4.20
2022-08-23T02:58:40.256Z,3.35
2022-08-23T03:01:22.307Z,3.25
2022-08-23T03:03:51.954Z,3.50
2022-08-23T03:06:24.794Z,2.95
2022-08-23T03:08:53.626Z,3.28
2022-08-23T03:11:21.792Z,3.50
2022-08-23T03:13:52.538Z,3.72
2022-08-23T03:16:19.601Z,3.80
2022-08-23T03:18:48.288Z,3.45
2022-08-23T03:21:15.021Z,4.00
2022-08-23T03:23:41.855Z,3.50
2022-08-23T03:26:10.886Z,4.07
2022-08-23T03:28:39.429Z,3.60
2022-08-23T03:31:07.215Z,3.45
2022-08-23T03:33:41.879Z,3.40
2022-08-23T03:36:11.285Z,3.22
2022-08-23T03:38:39.635Z,3.45
2022-08-23T03:41:08.915Z,3.75
2022-08-23T03:43:36.371Z,3.25
2022-08-23T03:46:03.350Z,3.85
2022-08-23T03:48:31.095Z,3.50
2022-08-23T03:50:58.613Z,4.50
2022-08-23T03:53:25.296Z,3.60
2022-08-23T03:55:53.371Z,4.03
2022-08-23T03:58:21.813Z,4.28
2022-08-23T04:00:48.982Z,4.30
2022-08-23T04:03:16.142Z,4.47
2022-08-23T04:08:35.720Z,4.20
2022-08-23T04:11:05.341Z,4.35
2022-08-23T04:13:33.085Z,4.30
2022-08-23T04:16:03.590Z,4.40
2022-08-23T04:18:31.990Z,4.03
2022-08-23T04:21:01.374Z,5.30
2022-08-23T04:23:28.185Z,4.40
2022-08-23T04:25:56.210Z,3.67
2022-08-23T04:28:24.245Z,4.28
2022-08-23T04:30:51.652Z,3.75
2022-08-23T04:33:18.403Z,3.22
2022-08-23T04:35:48.253Z,4.22
2022-08-23T04:38:18.065Z,3.45
2022-08-23T04:41:11.123Z,4.50
2022-08-23T04:43:39.201Z,4.97
2022-08-23T04:46:05.959Z,4.70
2022-08-23T04:48:35.521Z,4.25
2022-08-23T04:51:02.525Z,4.20
2022-08-23T04:53:35.249Z,3.65
2022-08-23T04:56:28.451Z,4.38
2022-08-23T04:58:55.248Z,4.13
2022-08-23T05:01:25.421Z,4.55
2022-08-23T05:03:53.399Z,4.80
2022-08-23T05:06:23.344Z,4.60
2022-08-23T05:08:49.987Z,4.55
2022-08-23T05:11:18.926Z,4.22
2022-08-23T05:13:47.049Z,4.40
2022-08-23T05:16:14.444Z,3.35
2022-08-23T05:18:49.261Z,3.53
2022-08-23T05:21:18.471Z,3.65
2022-08-23T05:23:50.768Z,4.38
2022-08-23T05:26:23.215Z,3.30
2022-08-23T05:28:50.522Z,4.25
2022-08-23T05:31:22.436Z,3.92
2022-08-23T05:33:54.394Z,4.45
2022-08-23T05:36:30.958Z,4.53
2022-08-23T05:38:58.049Z,3.75
2022-08-23T05:41:29.107Z,3.97
2022-08-23T05:44:08.017Z,3.63
2022-08-23T05:46:35.980Z,3.53
2022-08-23T05:49:23.289Z,3.88
2022-08-23T05:51:51.441Z,3.42
2022-08-23T05:54:19.096Z,3.47
2022-08-23T05:56:53.083Z,3.60
2022-08-23T05:59:20.378Z,3.38
2022-08-23T06:01:47.004Z,4.18
2022-08-23T06:04:18.943Z,4.30
2022-08-23T06:06:45.974Z,3.90
2022-08-23T06:09:14.808Z,3.83
2022-08-23T06:11:44.864Z,3.63
2022-08-23T06:14:13.091Z,3.55
2022-08-23T06:16:42.988Z,3.63
2022-08-23T06:19:13.018Z,3.35
2022-08-23T06:21:49.455Z,3.35
2022-08-23T06:24:23.284Z,3.13
2022-08-23T06:27:08.776Z,3.22
2022-08-23T06:29:35.523Z,3.17
2022-08-23T06:32:20.832Z,3.03
2022-08-23T06:35:15.866Z,2.80
2022-08-23T06:38:18.076Z,3.88
2022-08-23T06:41:11.681Z,3.45
2022-08-23T06:43:49.453Z,3.80
2022-08-23T06:46:23.477Z,3.45
2022-08-23T06:48:50.934Z,3.00
2022-08-23T06:51:27.842Z,2.67
2022-08-23T06:54:26.683Z,3.58
2022-08-23T06:56:54.047Z,3.30
2022-08-23T06:59:41.794Z,3.05
2022-08-23T07:02:31.962Z,3.78
2022-08-23T07:04:58.959Z,3.83
2022-08-23T07:07:39.634Z,3.65
2022-08-23T07:10:13.071Z,2.72
2022-08-23T07:12:42.641Z,3.30
2022-08-23T07:15:12.659Z,3.33
2022-08-23T07:17:42.267Z,2.90
2022-08-23T07:20:09.355Z,2.45
2022-08-23T07:22:38.992Z,2.80
2022-08-23T07:25:06.436Z,2.83
2022-08-23T07:27:34.670Z,2.85
2022-08-23T07:30:05.368Z,2.63
2022-08-23T07:32:32.407Z,2.45
2022-08-23T07:35:07.070Z,2.63
2022-08-23T07:37:34.469Z,2.72
2022-08-23T07:40:04.380Z,2.47
2022-08-23T07:42:33.009Z,2.63
2022-08-23T07:45:00.057Z,2.47
2022-08-23T07:47:28.671Z,3.45
2022-08-23T07:49:56.853Z,2.40
2022-08-23T07:52:23.595Z,2.75
2022-08-23T07:54:50.433Z,3.50
2022-08-23T07:57:46.322Z,2.75
2022-08-23T08:00:37.227Z,2.10
2022-08-23T08:03:23.338Z,2.88
2022-08-23T08:06:11.716Z,2.10
2022-08-23T08:08:41.046Z,2.35
2022-08-23T08:11:09.154Z,2.67
2022-08-23T08:13:41.722Z,2.88
2022-08-23T08:16:08.925Z,2.20
2022-08-23T08:18:39.481Z,2.80
2022-08-23T08:21:29.518Z,2.40
2022-08-23T08:24:01.780Z,2.40
2022-08-23T08:26:45.074Z,2.70
2022-08-23T08:29:13.007Z,2.58
2022-08-23T08:31:43.457Z,2.58
2022-08-23T08:34:10.388Z,2.70
2022-08-23T08:36:44.387Z,2.45
2022-08-23T08:39:19.788Z,2.15
2022-08-23T08:42:11.964Z,2.88
2022-08-23T08:44:51.887Z,2.67
2022-08-23T08:47:38.612Z,2.67
2022-08-23T08:50:16.087Z,2.20
2022-08-23T08:52:48.276Z,2.35
2022-08-23T08:55:38.789Z,1.98
2022-08-23T08:58:06.794Z,2.10
2022-08-23T09:00:38.758Z,2.20
2022-08-23T09:03:11.882Z,1.80
2022-08-23T09:05:39.853Z,2.35
2022-08-23T09:08:12.858Z,2.00
2022-08-23T09:10:58.664Z,2.25
2022-08-23T09:14:03.339Z,2.20
2022-08-23T09:16:46.452Z,1.73
2022-08-23T09:19:13.353Z,1.73
2022-08-23T09:21:40.065Z,1.75
2022-08-23T09:24:07.582Z,2.10
2022-08-23T09:26:45.450Z,2.00
2022-08-23T09:29:14.807Z,1.92
2022-08-23T09:31:44.094Z,1.80
2022-08-23T09:34:36.351Z,2.22
2022-08-23T09:37:23.604Z,1.90
2022-08-23T09:39:53.848Z,1.63
2022-08-23T09:42:27.222Z,1.70
2022-08-23T09:44:54.265Z,2.03
2022-08-23T09:47:34.653Z,1.50
2022-08-23T09:50:16.350Z,1.80
2022-08-23T09:52:43.379Z,2.20
2022-08-23T09:55:25.640Z,2.15
2022-08-23T09:57:52.530Z,1.83
2022-08-23T10:00:25.701Z,1.70
2022-08-23T10:02:57.415Z,1.70
2022-08-23T10:05:39.263Z,2.88
2022-08-23T10:08:10.951Z,1.85
2022-08-23T10:10:48.086Z,1.92
2022-08-23T10:13:20.715Z,2.30
2022-08-23T10:16:13.596Z,1.83
2022-08-23T10:19:13.348Z,1.50
2022-08-23T10:22:15.883Z,1.50
2022-08-23T10:25:16.150Z,1.60
2022-08-23T10:28:15.186Z,1.52
2022-08-23T10:30:48.282Z,1.90
2022-08-23T10:33:20.524Z,1.65
2022-08-23T10:36:09.012Z,1.75
2022-08-23T10:38:41.111Z,1.65
2022-08-23T10:41:18.532Z,1.92
2022-08-23T10:43:59.172Z,2.00
2022-08-23T10:46:28.159Z,2.03
2022-08-23T10:48:57.911Z,1.80
2022-08-23T10:51:32.212Z,2.00
2022-08-23T10:54:12.638Z,1.83
2022-08-23T10:56:48.570Z,1.73
2022-08-23T10:59:23.836Z,1.88
2022-08-23T11:02:29.222Z,2.00
2022-08-23T11:05:27.002Z,2.08
2022-08-23T11:08:02.437Z,1.98
2022-08-23T11:10:39.192Z,1.88
2022-08-23T11:13:18.388Z,1.58
2022-08-23T11:16:00.942Z,1.70
2022-08-23T11:18:40.873Z,1.73
2022-08-23T11:21:44.622Z,1.90
2022-08-23T11:24:13.255Z,2.05
2022-08-23T11:26:40.062Z,1.70
2022-08-23T11:29:07.377Z,2.13
2022-08-23T11:31:51.253Z,1.92
2022-08-23T11:34:30.036Z,1.83
2022-08-23T11:37:19.943Z,1.58
2022-08-23T11:40:00.422Z,1.70
2022-08-23T11:42:47.208Z,1.83
2022-08-23T11:45:22.394Z,1.73
2022-08-23T11:48:07.730Z,1.83
2022-08-23T11:50:57.712Z,1.65
2022-08-23T11:53:43.069Z,1.80
2022-08-23T11:56:21.055Z,1.63
2022-08-23T11:59:12.913Z,1.80
2022-08-23T12:01:40.722Z,1.50
2022-08-23T12:04:25.785Z,1.80
2022-08-23T12:06:58.121Z,1.80
2022-08-23T12:09:24.585Z,1.92
2022-08-23T12:11:57.056Z,1.90
2022-08-23T12:14:32.751Z,1.90
2022-08-23T12:17:06.123Z,1.90
2022-08-23T12:19:40.935Z,1.73
2022-08-23T12:22:14.023Z,1.70
2022-08-23T12:24:52.021Z,1.83
2022-08-23T12:27:34.169Z,1.95
2022-08-23T12:30:03.878Z,1.83
2022-08-23T12:32:55.012Z,2.10
2022-08-23T12:35:24.791Z,2.13
2022-08-23T12:38:21.521Z,1.90
2022-08-23T12:40:54.411Z,1.70
2022-08-23T12:43:24.021Z,1.88
2022-08-23T12:46:00.828Z,1.83
2022-08-23T12:48:33.194Z,1.95
2022-08-23T12:51:08.518Z,2.03
2022-08-23T12:53:42.671Z,2.00
2022-08-23T12:56:18.475Z,1.80
2022-08-23T12:58:57.355Z,1.75
2022-08-23T13:01:30.147Z,1.77
2022-08-23T13:04:04.860Z,2.25
2022-08-23T13:06:40.794Z,2.85
2022-08-23T13:09:14.151Z,1.88
2022-08-23T13:11:42.555Z,1.77
2022-08-23T13:14:34.413Z,1.80
2022-08-23T13:17:19.841Z,1.95
2022-08-23T13:19:53.670Z,1.50
2022-08-23T13:22:25.658Z,2.13
2022-08-23T13:27:46.441Z,2.13
2022-08-23T13:30:12.889Z,2.05
2022-08-23T13:32:45.241Z,1.88
2022-08-23T13:35:23.891Z,1.85
2022-08-23T13:37:52.101Z,2.33
2022-08-23T13:40:25.558Z,1.75
2022-08-23T13:43:03.078Z,1.85
2022-08-23T13:45:33.045Z,1.60
2022-08-23T13:48:13.255Z,1.50
2022-08-23T13:50:40.888Z,2.17
2022-08-23T13:53:15.912Z,1.92
2022-08-23T13:55:46.353Z,1.70
2022-08-23T13:58:17.559Z,1.98
2022-08-23T14:00:45.734Z,2.03
2022-08-23T14:03:21.782Z,1.70
2022-08-23T14:05:48.506Z,2.08
2022-08-23T14:08:15.548Z,2.25
2022-08-23T14:10:42.823Z,1.92
2022-08-23T14:13:11.437Z,2.17
2022-08-23T14:18:26.729Z,1.75
2022-08-23T14:20:53.555Z,1.80
2022-08-23T14:23:20.166Z,1.75
2022-08-23T14:25:47.411Z,1.90
2022-08-23T14:28:13.958Z,2.15
2022-08-23T14:30:40.684Z,2.17
2022-08-23T14:33:07.375Z,1.70
2022-08-23T14:35:33.997Z,2.03
2022-08-23T14:38:03.396Z,1.70
2022-08-23T14:40:30.681Z,1.65
2022-08-23T14:42:57.465Z,1.83
2022-08-23T14:45:24.085Z,1.98
2022-08-23T14:47:50.629Z,1.75
2022-08-23T14:50:17.458Z,1.80
2022-08-23T14:52:45.855Z,2.00
2022-08-23T14:55:13.140Z,1.90
2022-08-23T14:57:40.114Z,1.77
2022-08-23T15:00:13.609Z,1.50
2022-08-23T15:02:44.369Z,1.13
2022-08-23T15:05:12.642Z,1.80
2022-08-23T15:07:39.782Z,2.03
2022-08-23T15:10:09.805Z,1.65
2022-08-23T15:15:23.367Z,1.73
2022-08-23T15:17:54.793Z,1.88
2022-08-23T15:20:24.214Z,2.00
2022-08-23T15:22:55.378Z,1.85
2022-08-23T15:25:23.405Z,1.80
2022-08-23T15:27:50.938Z,2.03
2022-08-23T15:30:18.019Z,1.70
2022-08-23T15:32:52.466Z,1.70
2022-08-23T15:35:23.633Z,2.00
2022-08-23T15:37:50.276Z,1.85
2022-08-23T15:40:16.970Z,1.70
2022-08-23T15:42:43.729Z,1.52
2022-08-23T15:45:10.790Z,2.00
2022-08-23T15:47:46.382Z,2.22
2022-08-23T15:50:13.365Z,1.92
2022-08-23T15:52:39.980Z,1.80
2022-08-23T15:55:06.881Z,1.80
2022-08-23T15:57:45.098Z,2.08
2022-08-23T16:00:13.488Z,1.70
2022-08-23T16:03:04.381Z,2.00
2022-08-23T16:05:26.648Z,2.10
2022-08-23T16:07:56.165Z,1.92
2022-08-23T16:10:25.125Z,1.80
2022-08-23T16:12:54.677Z,2.03
2022-08-23T16:15:21.298Z,2.13
2022-08-23T16:17:49.112Z,2.00
2022-08-23T16:20:15.790Z,1.70
2022-08-23T16:22:42.401Z,2.13
2022-08-23T16:25:09.319Z,1.80
2022-08-23T16:27:36.394Z,1.90
2022-08-23T16:30:05.127Z,1.90
2022-08-23T16:32:31.658Z,1.95
2022-08-23T16:34:58.335Z,1.42
2022-08-23T16:37:25.549Z,1.83
2022-08-23T16:39:52.987Z,1.80
2022-08-23T16:42:19.873Z,1.88
2022-08-23T16:44:46.535Z,1.60
2022-08-23T16:47:14.627Z,2.47
2022-08-23T16:49:43.425Z,1.85
2022-08-23T16:52:10.679Z,1.85
2022-08-23T16:54:37.897Z,1.80
2022-08-23T16:57:05.265Z,2.15
2022-08-23T16:59:31.899Z,2.05
2022-08-23T17:02:01.822Z,1.90
2022-08-23T17:04:38.005Z,2.20
2022-08-23T17:07:04.741Z,1.88
2022-08-23T17:09:31.392Z,2.53
2022-08-23T17:11:58.478Z,1.70
2022-08-23T17:14:26.042Z,2.13
2022-08-23T17:16:52.732Z,2.00
2022-08-23T17:19:19.338Z,1.83
2022-08-23T17:21:45.930Z,2.17
2022-08-23T17:24:12.494Z,1.80
2022-08-23T17:26:39.553Z,4.78
2022-08-23T17:29:07.359Z,2.80
2022-08-23T17:31:34.039Z,2.10
2022-08-23T17:34:03.769Z,2.33
2022-08-23T17:36:34.291Z,1.85
2022-08-23T17:39:01.508Z,1.70
2022-08-23T17:41:28.511Z,1.95
2022-08-23T17:43:55.837Z,1.77
2022-08-23T17:46:24.569Z,2.00
2022-08-23T17:48:51.398Z,1.95
2022-08-23T17:51:18.078Z,1.95
2022-08-23T17:53:44.719Z,2.03
2022-08-23T17:56:12.318Z,2.10
2022-08-23T17:58:39.372Z,1.65
2022-08-23T18:01:06.433Z,1.95
2022-08-23T18:03:33.438Z,1.73
2022-08-23T18:06:00.532Z,2.22
2022-08-23T18:08:27.220Z,1.92
2022-08-23T18:10:53.983Z,1.90
2022-08-23T18:13:20.784Z,2.00
2022-08-23T18:15:47.504Z,2.10
2022-08-23T18:18:14.465Z,2.22
2022-08-23T18:20:41.089Z,2.03
2022-08-23T18:23:07.925Z,2.08
2022-08-23T18:25:35.230Z,2.30
2022-08-23T18:28:12.883Z,2.15
2022-08-23T18:30:47.708Z,2.40
2022-08-23T18:33:15.953Z,2.30
2022-08-23T18:35:45.798Z,2.00
2022-08-23T18:38:13.089Z,2.50
2022-08-23T18:40:45.596Z,2.45
2022-08-23T18:43:17.831Z,2.05
2022-08-23T18:48:12.339Z,2.20
2022-08-23T18:50:40.363Z,2.55
2022-08-23T18:53:07.791Z,2.40
2022-08-23T18:55:36.437Z,2.25
2022-08-23T18:58:04.488Z,2.55
2022-08-23T19:00:31.492Z,2.22
2022-08-23T19:02:59.066Z,2.55
2022-08-23T19:05:25.784Z,2.65
2022-08-23T19:07:52.408Z,2.58
2022-08-23T19:10:20.595Z,2.40
2022-08-23T19:12:51.819Z,2.25
2022-08-23T19:15:21.119Z,2.80
2022-08-23T19:17:47.841Z,2.40
2022-08-23T19:20:15.698Z,3.13
2022-08-23T19:22:43.269Z,2.10
2022-08-23T19:25:09.870Z,2.83
2022-08-23T19:27:36.735Z,3.05
2022-08-23T19:30:06.567Z,2.75
2022-08-23T19:32:35.287Z,2.60
2022-08-23T19:35:02.051Z,2.80
2022-08-23T19:37:28.745Z,2.88
2022-08-23T19:39:55.556Z,2.67
2022-08-23T19:42:22.271Z,3.17
2022-08-23T19:44:49.597Z,2.95
2022-08-23T19:47:19.765Z,2.65
2022-08-23T19:49:48.422Z,2.40
2022-08-23T19:52:15.028Z,2.67
2022-08-23T19:54:41.575Z,2.90
2022-08-23T19:57:09.989Z,3.05
2022-08-23T19:59:41.110Z,3.03
2022-08-23T20:02:09.637Z,2.88
2022-08-23T20:04:36.925Z,2.83
2022-08-23T20:07:04.555Z,2.97
2022-08-23T20:09:32.530Z,2.88
2022-08-23T20:11:59.393Z,3.40
2022-08-23T20:14:27.701Z,3.13
2022-08-23T20:16:54.962Z,2.67
2022-08-23T20:19:22.018Z,3.42
2022-08-23T20:21:48.863Z,2.97
2022-08-23T20:24:16.038Z,2.92
2022-08-23T20:26:46.983Z,3.03
2022-08-23T20:29:19.270Z,2.92
2022-08-23T20:34:17.542Z,2.83
2022-08-23T20:36:44.636Z,3.30
2022-08-23T20:39:11.348Z,3.47
2022-08-23T20:41:39.495Z,2.65
2022-08-23T20:44:07.351Z,3.38
2022-08-23T20:46:34.142Z,3.10
2022-08-23T20:49:00.748Z,3.50
2022-08-23T20:51:28.462Z,3.08
2022-08-23T20:53:56.156Z,3.08
2022-08-23T20:56:23.489Z,2.72
2022-08-23T20:58:50.889Z,3.13
2022-08-23T21:01:18.689Z,3.22
2022-08-23T21:03:45.713Z,3.15
2022-08-23T21:06:30.233Z,2.92
2022-08-23T21:08:59.078Z,3.22
2022-08-23T21:11:28.330Z,3.10
2022-08-23T21:13:56.037Z,3.10
2022-08-23T21:16:23.159Z,3.03
2022-08-23T21:18:50.138Z,3.17
2022-08-23T21:21:21.454Z,2.95
2022-08-23T21:23:48.683Z,2.83
2022-08-23T21:26:15.934Z,2.88
2022-08-23T21:28:42.553Z,3.28
2022-08-23T21:31:12.132Z,3.45
2022-08-23T21:33:40.343Z,2.90
2022-08-23T21:36:10.882Z,2.88
2022-08-23T21:38:38.156Z,2.97
2022-08-23T21:41:08.461Z,3.00
2022-08-23T21:43:37.231Z,2.75
2022-08-23T21:46:05.427Z,2.90
2022-08-23T21:48:32.340Z,2.80
2022-08-23T21:50:59.833Z,3.08
2022-08-23T21:53:26.990Z,2.95
2022-08-23T21:55:53.791Z,3.30
2022-08-23T21:58:20.666Z,3.00
2022-08-23T22:00:47.328Z,2.90
2022-08-23T22:03:14.025Z,3.08
2022-08-23T22:05:42.472Z,2.58
2022-08-23T22:08:09.572Z,2.80
2022-08-23T22:10:41.387Z,3.40
2022-08-23T22:13:14.866Z,2.75
2022-08-23T22:15:42.177Z,3.28
2022-08-23T22:18:08.855Z,3.42
2022-08-23T22:20:35.765Z,2.83
2022-08-23T22:23:02.673Z,2.70
2022-08-23T22:25:29.548Z,3.13
2022-08-23T22:27:56.500Z,3.05
2022-08-23T22:30:24.867Z,2.60
2022-08-23T22:32:51.478Z,3.08
2022-08-23T22:35:18.405Z,2.97
2022-08-23T22:38:03.649Z,3.03
2022-08-23T22:40:32.012Z,3.17
2022-08-23T22:42:58.623Z,3.00
2022-08-23T22:45:25.193Z,2.60
2022-08-23T22:47:51.803Z,3.50
2022-08-23T22:50:18.487Z,2.55
2022-08-23T22:52:45.441Z,2.97
2022-08-23T22:55:12.047Z,3.10
2022-08-23T22:57:38.710Z,3.63
2022-08-23T23:00:06.883Z,3.28
2022-08-23T23:02:37.406Z,3.53
2022-08-23T23:05:04.423Z,3.42
2022-08-23T23:07:49.775Z,3.55
2022-08-23T23:10:16.992Z,3.60
2022-08-23T23:12:43.554Z,4.13
2022-08-23T23:15:10.520Z,3.83
2022-08-23T23:17:38.530Z,3.08
2022-08-23T23:20:24.586Z,3.40
2022-08-23T23:22:51.876Z,3.50
2022-08-23T23:25:18.788Z,3.65
2022-08-23T23:27:45.613Z,4.28
2022-08-23T23:30:15.251Z,4.10
2022-08-23T23:32:43.297Z,3.65
2022-08-23T23:35:10.596Z,4.35
2022-08-23T23:37:37.702Z,4.28
2022-08-23T23:40:05.964Z,3.88
2022-08-23T23:42:33.007Z,4.57
2022-08-23T23:44:59.842Z,3.78
2022-08-23T23:47:26.811Z,3.60
2022-08-23T23:49:53.442Z,4.05
2022-08-23T23:52:20.499Z,4.22
2022-08-23T23:54:47.097Z,4.25
2022-08-23T23:57:13.926Z,3.38
2022-08-23T23:59:41.251Z,4.47
